sensor_id;sensor_type;location;lat;lon;timestamp;temperature;humidity
22526;DHT22;11429;50.842;4.386;2024-02-23T00:02:05;6.70;99.90
22526;DHT22;11429;50.842;4.386;2024-02-23T00:04:31;6.70;99.90
22526;DHT22;11429;50.842;4.386;2024-02-23T00:06:58;6.60;99.90
22526;DHT22;11429;50.842;4.386;2024-02-23T00:09:23;6.80;99.90
22526;DHT22;11429;50.842;4.386;2024-02-23T00:11:50;6.90;99.90
22526;DHT22;11429;50.842;4.386;2024-02-23T00:14:16;6.90;99.90
22526;DHT22;11429;50.842;4.386;2024-02-23T00:16:45;7.10;99.90
22526;DHT22;11429;50.842;4.386;2024-02-23T00:19:11;7.20;99.90
22526;DHT22;11429;50.842;4.386;2024-02-23T00:21:37;6.90;99.90
22526;DHT22;11429;50.842;4.386;2024-02-23T00:24:04;6.90;99.90
22526;DHT22;11429;50.842;4.386;2024-02-23T00:26:30;6.80;99.90
22526;DHT22;11429;50.842;4.386;2024-02-23T00:28:56;6.70;99.90
22526;DHT22;11429;50.842;4.386;2024-02-23T00:31:22;6.70;99.90
22526;DHT22;11429;50.842;4.386;2024-02-23T00:33:48;6.60;99.90
22526;DHT22;11429;50.842;4.386;2024-02-23T00:36:14;6.60;99.90
22526;DHT22;11429;50.842;4.386;2024-02-23T00:38:40;6.50;99.90
22526;DHT22;11429;50.842;4.386;2024-02-23T00:41:05;6.80;99.90
22526;DHT22;11429;50.842;4.386;2024-02-23T00:43:41;7.00;99.90
22526;DHT22;11429;50.842;4.386;2024-02-23T00:46:08;7.00;99.90
22526;DHT22;11429;50.842;4.386;2024-02-23T00:48:34;6.90;99.90
22526;DHT22;11429;50.842;4.386;2024-02-23T00:51:01;6.90;99.90
22526;DHT22;11429;50.842;4.386;2024-02-23T00:53:28;6.90;99.90
22526;DHT22;11429;50.842;4.386;2024-02-23T00:55:54;6.90;99.90
22526;DHT22;11429;50.842;4.386;2024-02-23T00:58:20;6.60;99.90
22526;DHT22;11429;50.842;4.386;2024-02-23T01:00:45;6.50;99.90
22526;DHT22;11429;50.842;4.386;2024-02-23T01:03:11;6.30;99.90
22526;DHT22;11429;50.842;4.386;2024-02-23T01:05:37;6.30;99.90
22526;DHT22;11429;50.842;4.386;2024-02-23T01:08:04;6.20;99.90
22526;DHT22;11429;50.842;4.386;2024-02-23T01:10:29;6.20;99.90
22526;DHT22;11429;50.842;4.386;2024-02-23T01:12:55;6.20;99.90
22526;DHT22;11429;50.842;4.386;2024-02-23T01:15:21;6.20;99.90
22526;DHT22;11429;50.842;4.386;2024-02-23T01:17:46;6.10;99.90
22526;DHT22;11429;50.842;4.386;2024-02-23T01:20:13;6.20;99.90
22526;DHT22;11429;50.842;4.386;2024-02-23T01:22:39;6.20;99.90
22526;DHT22;11429;50.842;4.386;2024-02-23T01:25:05;6.20;99.90
22526;DHT22;11429;50.842;4.386;2024-02-23T01:27:31;6.10;99.90
22526;DHT22;11429;50.842;4.386;2024-02-23T01:29:57;6.00;99.90
22526;DHT22;11429;50.842;4.386;2024-02-23T01:32:23;6.00;99.90
22526;DHT22;11429;50.842;4.386;2024-02-23T01:34:48;6.00;99.90
22526;DHT22;11429;50.842;4.386;2024-02-23T01:37:14;6.10;99.90
22526;DHT22;11429;50.842;4.386;2024-02-23T01:39:40;6.20;99.90
22526;DHT22;11429;50.842;4.386;2024-02-23T01:42:06;6.10;99.90
22526;DHT22;11429;50.842;4.386;2024-02-23T01:44:31;6.10;99.90
22526;DHT22;11429;50.842;4.386;2024-02-23T01:46:57;6.00;99.90
22526;DHT22;11429;50.842;4.386;2024-02-23T01:49:23;6.10;99.90
22526;DHT22;11429;50.842;4.386;2024-02-23T01:51:56;6.30;99.90
22526;DHT22;11429;50.842;4.386;2024-02-23T01:54:22;6.30;99.90
22526;DHT22;11429;50.842;4.386;2024-02-23T01:56:50;6.50;99.90
22526;DHT22;11429;50.842;4.386;2024-02-23T01:59:15;6.40;99.90
22526;DHT22;11429;50.842;4.386;2024-02-23T02:01:43;6.40;99.90
22526;DHT22;11429;50.842;4.386;2024-02-23T02:04:09;6.40;99.90
22526;DHT22;11429;50.842;4.386;2024-02-23T02:06:35;6.40;99.90
22526;DHT22;11429;50.842;4.386;2024-02-23T02:09:02;6.50;99.90
22526;DHT22;11429;50.842;4.386;2024-02-23T02:11:28;6.40;99.90
22526;DHT22;11429;50.842;4.386;2024-02-23T02:13:53;6.30;99.90
22526;DHT22;11429;50.842;4.386;2024-02-23T02:16:19;6.40;99.90
22526;DHT22;11429;50.842;4.386;2024-02-23T02:18:45;6.40;99.90
22526;DHT22;11429;50.842;4.386;2024-02-23T02:21:11;6.40;99.90
22526;DHT22;11429;50.842;4.386;2024-02-23T02:23:37;6.30;99.90
22526;DHT22;11429;50.842;4.386;2024-02-23T02:26:04;6.40;99.90
22526;DHT22;11429;50.842;4.386;2024-02-23T02:28:29;6.60;99.90
22526;DHT22;11429;50.842;4.386;2024-02-23T02:30:55;6.60;99.90
22526;DHT22;11429;50.842;4.386;2024-02-23T02:33:22;6.50;99.90
22526;DHT22;11429;50.842;4.386;2024-02-23T02:35:48;6.40;99.90
22526;DHT22;11429;50.842;4.386;2024-02-23T02:38:15;6.30;99.90
22526;DHT22;11429;50.842;4.386;2024-02-23T02:40:41;6.30;99.90
22526;DHT22;11429;50.842;4.386;2024-02-23T02:43:07;6.40;99.90
22526;DHT22;11429;50.842;4.386;2024-02-23T02:45:33;6.40;99.90
22526;DHT22;11429;50.842;4.386;2024-02-23T02:48:02;6.30;99.90
22526;DHT22;11429;50.842;4.386;2024-02-23T02:50:28;6.30;99.90
22526;DHT22;11429;50.842;4.386;2024-02-23T02:52:54;6.30;99.90
22526;DHT22;11429;50.842;4.386;2024-02-23T02:55:20;6.40;99.90
22526;DHT22;11429;50.842;4.386;2024-02-23T02:57:46;6.50;99.90
22526;DHT22;11429;50.842;4.386;2024-02-23T03:00:12;6.50;99.90
22526;DHT22;11429;50.842;4.386;2024-02-23T03:02:38;6.50;99.90
22526;DHT22;11429;50.842;4.386;2024-02-23T03:05:04;6.50;99.90
22526;DHT22;11429;50.842;4.386;2024-02-23T03:07:30;6.50;99.90
22526;DHT22;11429;50.842;4.386;2024-02-23T03:09:56;6.50;99.90
22526;DHT22;11429;50.842;4.386;2024-02-23T03:12:24;6.60;99.90
22526;DHT22;11429;50.842;4.386;2024-02-23T03:14:50;6.60;99.90
22526;DHT22;11429;50.842;4.386;2024-02-23T03:17:16;6.60;99.90
22526;DHT22;11429;50.842;4.386;2024-02-23T03:19:42;6.60;99.90
22526;DHT22;11429;50.842;4.386;2024-02-23T03:22:07;6.50;99.90
22526;DHT22;11429;50.842;4.386;2024-02-23T03:24:33;6.60;99.90
22526;DHT22;11429;50.842;4.386;2024-02-23T03:26:59;6.60;99.90
22526;DHT22;11429;50.842;4.386;2024-02-23T03:29:25;6.60;99.90
22526;DHT22;11429;50.842;4.386;2024-02-23T03:31:55;6.50;99.90
22526;DHT22;11429;50.842;4.386;2024-02-23T03:34:21;6.60;99.90
22526;DHT22;11429;50.842;4.386;2024-02-23T03:36:46;6.60;99.90
22526;DHT22;11429;50.842;4.386;2024-02-23T03:39:13;6.50;99.90
22526;DHT22;11429;50.842;4.386;2024-02-23T03:41:39;6.60;99.90
22526;DHT22;11429;50.842;4.386;2024-02-23T03:44:05;6.50;99.90
22526;DHT22;11429;50.842;4.386;2024-02-23T03:46:31;6.50;99.90
22526;DHT22;11429;50.842;4.386;2024-02-23T03:48:56;6.50;99.90
22526;DHT22;11429;50.842;4.386;2024-02-23T03:51:23;6.50;99.90
22526;DHT22;11429;50.842;4.386;2024-02-23T03:53:49;6.60;99.90
22526;DHT22;11429;50.842;4.386;2024-02-23T03:56:16;6.50;99.90
22526;DHT22;11429;50.842;4.386;2024-02-23T03:58:42;6.50;99.90
22526;DHT22;11429;50.842;4.386;2024-02-23T04:01:07;6.50;99.90
22526;DHT22;11429;50.842;4.386;2024-02-23T04:03:34;6.60;99.90
22526;DHT22;11429;50.842;4.386;2024-02-23T04:05:59;6.60;99.90
22526;DHT22;11429;50.842;4.386;2024-02-23T04:08:25;6.60;99.90
22526;DHT22;11429;50.842;4.386;2024-02-23T04:10:51;6.60;99.90
22526;DHT22;11429;50.842;4.386;2024-02-23T04:13:17;6.50;99.90
22526;DHT22;11429;50.842;4.386;2024-02-23T04:15:43;6.60;99.90
22526;DHT22;11429;50.842;4.386;2024-02-23T04:18:09;6.60;99.90
22526;DHT22;11429;50.842;4.386;2024-02-23T04:20:35;6.70;99.90
22526;DHT22;11429;50.842;4.386;2024-02-23T04:23:01;6.70;99.90
22526;DHT22;11429;50.842;4.386;2024-02-23T04:25:26;6.60;99.90
22526;DHT22;11429;50.842;4.386;2024-02-23T04:27:52;6.60;99.90
22526;DHT22;11429;50.842;4.386;2024-02-23T04:30:18;6.60;99.90
22526;DHT22;11429;50.842;4.386;2024-02-23T04:32:44;6.80;99.90
22526;DHT22;11429;50.842;4.386;2024-02-23T04:35:10;6.70;99.90
22526;DHT22;11429;50.842;4.386;2024-02-23T04:37:35;6.70;99.90
22526;DHT22;11429;50.842;4.386;2024-02-23T04:40:01;6.60;99.90
22526;DHT22;11429;50.842;4.386;2024-02-23T04:42:27;6.60;99.90
22526;DHT22;11429;50.842;4.386;2024-02-23T04:44:53;6.50;99.90
22526;DHT22;11429;50.842;4.386;2024-02-23T04:47:20;6.50;99.90
22526;DHT22;11429;50.842;4.386;2024-02-23T04:49:46;6.50;99.90
22526;DHT22;11429;50.842;4.386;2024-02-23T04:52:12;6.50;99.90
22526;DHT22;11429;50.842;4.386;2024-02-23T04:54:38;6.60;99.90
22526;DHT22;11429;50.842;4.386;2024-02-23T04:57:03;6.50;99.90
22526;DHT22;11429;50.842;4.386;2024-02-23T04:59:29;6.50;99.90
22526;DHT22;11429;50.842;4.386;2024-02-23T05:01:57;6.50;99.90
22526;DHT22;11429;50.842;4.386;2024-02-23T05:04:23;6.40;99.90
22526;DHT22;11429;50.842;4.386;2024-02-23T05:06:49;6.40;99.90
22526;DHT22;11429;50.842;4.386;2024-02-23T05:09:15;6.40;99.90
22526;DHT22;11429;50.842;4.386;2024-02-23T05:11:40;6.40;99.90
22526;DHT22;11429;50.842;4.386;2024-02-23T05:14:06;6.40;99.90
22526;DHT22;11429;50.842;4.386;2024-02-23T05:16:32;6.40;99.90
22526;DHT22;11429;50.842;4.386;2024-02-23T05:18:58;6.30;99.90
22526;DHT22;11429;50.842;4.386;2024-02-23T05:21:23;6.40;99.90
22526;DHT22;11429;50.842;4.386;2024-02-23T05:23:51;6.30;99.90
22526;DHT22;11429;50.842;4.386;2024-02-23T05:26:17;6.30;99.90
22526;DHT22;11429;50.842;4.386;2024-02-23T05:28:43;6.30;99.90
22526;DHT22;11429;50.842;4.386;2024-02-23T05:31:09;6.20;99.90
22526;DHT22;11429;50.842;4.386;2024-02-23T05:33:35;6.20;99.90
22526;DHT22;11429;50.842;4.386;2024-02-23T05:36:01;6.20;99.90
22526;DHT22;11429;50.842;4.386;2024-02-23T05:38:27;6.20;99.90
22526;DHT22;11429;50.842;4.386;2024-02-23T05:40:52;6.20;99.90
22526;DHT22;11429;50.842;4.386;2024-02-23T05:43:18;6.20;99.90
22526;DHT22;11429;50.842;4.386;2024-02-23T05:45:44;6.20;99.90
22526;DHT22;11429;50.842;4.386;2024-02-23T05:48:10;6.10;99.90
22526;DHT22;11429;50.842;4.386;2024-02-23T05:50:37;6.10;99.90
22526;DHT22;11429;50.842;4.386;2024-02-23T05:53:02;6.20;99.90
22526;DHT22;11429;50.842;4.386;2024-02-23T05:55:30;6.20;99.90
22526;DHT22;11429;50.842;4.386;2024-02-23T05:57:56;6.20;99.90
22526;DHT22;11429;50.842;4.386;2024-02-23T06:00:22;6.20;99.90
22526;DHT22;11429;50.842;4.386;2024-02-23T06:02:47;6.20;99.90
22526;DHT22;11429;50.842;4.386;2024-02-23T06:05:13;6.20;99.90
22526;DHT22;11429;50.842;4.386;2024-02-23T06:07:40;6.20;99.90
22526;DHT22;11429;50.842;4.386;2024-02-23T06:10:07;6.20;99.90
22526;DHT22;11429;50.842;4.386;2024-02-23T06:12:32;6.20;99.90
22526;DHT22;11429;50.842;4.386;2024-02-23T06:14:58;6.20;99.90
22526;DHT22;11429;50.842;4.386;2024-02-23T06:17:24;6.20;99.90
22526;DHT22;11429;50.842;4.386;2024-02-23T06:19:50;6.20;99.90
22526;DHT22;11429;50.842;4.386;2024-02-23T06:22:18;6.20;99.90
22526;DHT22;11429;50.842;4.386;2024-02-23T06:24:47;6.20;99.90
22526;DHT22;11429;50.842;4.386;2024-02-23T06:27:13;6.10;99.90
22526;DHT22;11429;50.842;4.386;2024-02-23T06:29:38;6.20;99.90
22526;DHT22;11429;50.842;4.386;2024-02-23T06:32:05;6.20;99.90
22526;DHT22;11429;50.842;4.386;2024-02-23T06:34:31;6.20;99.90
22526;DHT22;11429;50.842;4.386;2024-02-23T06:36:57;6.20;99.90
22526;DHT22;11429;50.842;4.386;2024-02-23T06:39:23;6.30;99.90
22526;DHT22;11429;50.842;4.386;2024-02-23T06:41:49;6.30;99.90
22526;DHT22;11429;50.842;4.386;2024-02-23T06:44:15;6.30;99.90
22526;DHT22;11429;50.842;4.386;2024-02-23T06:46:41;6.30;99.90
22526;DHT22;11429;50.842;4.386;2024-02-23T06:49:07;6.40;99.90
22526;DHT22;11429;50.842;4.386;2024-02-23T06:51:33;6.40;99.90
22526;DHT22;11429;50.842;4.386;2024-02-23T06:53:59;6.40;99.90
22526;DHT22;11429;50.842;4.386;2024-02-23T06:56:24;6.40;99.90
22526;DHT22;11429;50.842;4.386;2024-02-23T06:58:50;6.50;99.90
22526;DHT22;11429;50.842;4.386;2024-02-23T07:01:16;6.40;99.90
22526;DHT22;11429;50.842;4.386;2024-02-23T07:03:42;6.40;99.90
22526;DHT22;11429;50.842;4.386;2024-02-23T07:06:09;6.40;99.90
22526;DHT22;11429;50.842;4.386;2024-02-23T07:08:38;6.40;99.90
22526;DHT22;11429;50.842;4.386;2024-02-23T07:11:03;6.40;99.90
22526;DHT22;11429;50.842;4.386;2024-02-23T07:13:29;6.50;99.90
22526;DHT22;11429;50.842;4.386;2024-02-23T07:15:55;6.50;99.90
22526;DHT22;11429;50.842;4.386;2024-02-23T07:18:22;6.50;99.90
22526;DHT22;11429;50.842;4.386;2024-02-23T07:20:48;6.60;99.90
22526;DHT22;11429;50.842;4.386;2024-02-23T07:23:13;6.60;99.90
22526;DHT22;11429;50.842;4.386;2024-02-23T07:25:41;6.60;99.90
22526;DHT22;11429;50.842;4.386;2024-02-23T07:28:07;6.60;99.90
22526;DHT22;11429;50.842;4.386;2024-02-23T07:30:33;6.60;99.90
22526;DHT22;11429;50.842;4.386;2024-02-23T07:33:00;6.60;99.90
22526;DHT22;11429;50.842;4.386;2024-02-23T07:35:26;6.70;99.90
22526;DHT22;11429;50.842;4.386;2024-02-23T07:37:54;6.80;99.90
22526;DHT22;11429;50.842;4.386;2024-02-23T07:40:20;6.80;99.90
22526;DHT22;11429;50.842;4.386;2024-02-23T07:42:46;6.80;99.90
22526;DHT22;11429;50.842;4.386;2024-02-23T07:45:12;6.90;99.90
22526;DHT22;11429;50.842;4.386;2024-02-23T07:47:37;6.90;99.90
22526;DHT22;11429;50.842;4.386;2024-02-23T07:50:03;7.00;99.90
22526;DHT22;11429;50.842;4.386;2024-02-23T07:52:29;7.10;99.90
22526;DHT22;11429;50.842;4.386;2024-02-23T07:54:55;7.20;99.90
22526;DHT22;11429;50.842;4.386;2024-02-23T07:57:21;7.30;99.90
22526;DHT22;11429;50.842;4.386;2024-02-23T07:59:47;7.40;99.90
22526;DHT22;11429;50.842;4.386;2024-02-23T08:02:14;7.50;99.90
22526;DHT22;11429;50.842;4.386;2024-02-23T08:04:40;7.50;99.90
22526;DHT22;11429;50.842;4.386;2024-02-23T08:07:06;7.30;99.90
22526;DHT22;11429;50.842;4.386;2024-02-23T08:09:31;7.10;99.90
22526;DHT22;11429;50.842;4.386;2024-02-23T08:11:58;7.00;99.90
22526;DHT22;11429;50.842;4.386;2024-02-23T08:14:23;7.00;99.90
22526;DHT22;11429;50.842;4.386;2024-02-23T08:16:49;7.00;99.90
22526;DHT22;11429;50.842;4.386;2024-02-23T08:19:15;7.00;99.90
22526;DHT22;11429;50.842;4.386;2024-02-23T08:21:41;6.80;99.90
22526;DHT22;11429;50.842;4.386;2024-02-23T08:24:09;6.80;99.90
22526;DHT22;11429;50.842;4.386;2024-02-23T08:26:35;6.70;99.90
22526;DHT22;11429;50.842;4.386;2024-02-23T08:29:03;6.70;99.90
22526;DHT22;11429;50.842;4.386;2024-02-23T08:31:30;6.60;99.90
22526;DHT22;11429;50.842;4.386;2024-02-23T08:33:56;6.50;99.90
22526;DHT22;11429;50.842;4.386;2024-02-23T08:36:21;6.50;99.90
22526;DHT22;11429;50.842;4.386;2024-02-23T08:38:47;6.40;99.90
22526;DHT22;11429;50.842;4.386;2024-02-23T08:41:13;6.30;99.90
22526;DHT22;11429;50.842;4.386;2024-02-23T08:43:39;6.30;99.90
22526;DHT22;11429;50.842;4.386;2024-02-23T08:46:04;6.40;99.90
22526;DHT22;11429;50.842;4.386;2024-02-23T08:48:30;6.50;99.90
22526;DHT22;11429;50.842;4.386;2024-02-23T08:50:56;6.50;99.90
22526;DHT22;11429;50.842;4.386;2024-02-23T08:53:22;6.50;99.90
22526;DHT22;11429;50.842;4.386;2024-02-23T08:55:47;6.50;99.90
22526;DHT22;11429;50.842;4.386;2024-02-23T08:58:13;6.40;99.90
22526;DHT22;11429;50.842;4.386;2024-02-23T09:00:39;6.50;99.90
22526;DHT22;11429;50.842;4.386;2024-02-23T09:03:05;6.40;99.90
22526;DHT22;11429;50.842;4.386;2024-02-23T09:05:30;6.40;99.90
22526;DHT22;11429;50.842;4.386;2024-02-23T09:07:56;6.40;99.90
22526;DHT22;11429;50.842;4.386;2024-02-23T09:10:22;6.40;99.90
22526;DHT22;11429;50.842;4.386;2024-02-23T09:12:48;6.40;99.90
22526;DHT22;11429;50.842;4.386;2024-02-23T09:15:13;6.50;99.90
22526;DHT22;11429;50.842;4.386;2024-02-23T09:17:42;6.50;99.90
22526;DHT22;11429;50.842;4.386;2024-02-23T09:20:08;6.60;99.90
22526;DHT22;11429;50.842;4.386;2024-02-23T09:22:34;6.60;99.90
22526;DHT22;11429;50.842;4.386;2024-02-23T09:25:02;6.70;99.90
22526;DHT22;11429;50.842;4.386;2024-02-23T09:27:28;6.70;99.90
22526;DHT22;11429;50.842;4.386;2024-02-23T09:29:54;6.60;99.90
22526;DHT22;11429;50.842;4.386;2024-02-23T09:32:20;6.60;99.90
22526;DHT22;11429;50.842;4.386;2024-02-23T09:34:45;6.70;99.90
22526;DHT22;11429;50.842;4.386;2024-02-23T09:37:11;6.90;99.90
22526;DHT22;11429;50.842;4.386;2024-02-23T09:39:37;6.90;99.90
22526;DHT22;11429;50.842;4.386;2024-02-23T09:42:09;7.10;99.90
22526;DHT22;11429;50.842;4.386;2024-02-23T09:44:35;7.10;99.90
22526;DHT22;11429;50.842;4.386;2024-02-23T09:47:03;7.30;99.90
22526;DHT22;11429;50.842;4.386;2024-02-23T09:49:40;7.40;99.90
22526;DHT22;11429;50.842;4.386;2024-02-23T09:52:09;7.60;99.90
22526;DHT22;11429;50.842;4.386;2024-02-23T09:54:39;7.60;99.90
22526;DHT22;11429;50.842;4.386;2024-02-23T09:57:07;7.70;99.90
22526;DHT22;11429;50.842;4.386;2024-02-23T09:59:34;7.60;99.90
22526;DHT22;11429;50.842;4.386;2024-02-23T10:02:02;7.40;99.90
22526;DHT22;11429;50.842;4.386;2024-02-23T10:04:29;7.40;99.90
22526;DHT22;11429;50.842;4.386;2024-02-23T10:06:56;7.50;99.90
22526;DHT22;11429;50.842;4.386;2024-02-23T10:09:22;7.50;99.90
22526;DHT22;11429;50.842;4.386;2024-02-23T10:11:54;7.40;99.90
22526;DHT22;11429;50.842;4.386;2024-02-23T10:14:20;7.40;99.90
22526;DHT22;11429;50.842;4.386;2024-02-23T10:16:47;7.30;99.90
22526;DHT22;11429;50.842;4.386;2024-02-23T10:19:13;7.40;99.90
22526;DHT22;11429;50.842;4.386;2024-02-23T10:21:38;7.60;99.90
22526;DHT22;11429;50.842;4.386;2024-02-23T10:24:05;8.00;99.90
22526;DHT22;11429;50.842;4.386;2024-02-23T10:26:31;8.30;99.90
22526;DHT22;11429;50.842;4.386;2024-02-23T10:28:57;8.30;99.90
22526;DHT22;11429;50.842;4.386;2024-02-23T10:31:24;8.20;99.90
22526;DHT22;11429;50.842;4.386;2024-02-23T10:33:50;8.00;99.90
22526;DHT22;11429;50.842;4.386;2024-02-23T10:36:18;8.00;99.90
22526;DHT22;11429;50.842;4.386;2024-02-23T10:38:45;8.00;99.90
22526;DHT22;11429;50.842;4.386;2024-02-23T10:41:17;7.90;99.90
22526;DHT22;11429;50.842;4.386;2024-02-23T10:43:48;8.00;99.90
22526;DHT22;11429;50.842;4.386;2024-02-23T10:46:15;7.90;99.90
22526;DHT22;11429;50.842;4.386;2024-02-23T10:48:44;8.00;99.90
22526;DHT22;11429;50.842;4.386;2024-02-23T10:51:13;7.90;99.90
22526;DHT22;11429;50.842;4.386;2024-02-23T10:53:44;7.90;99.90
22526;DHT22;11429;50.842;4.386;2024-02-23T10:56:11;7.90;99.90
22526;DHT22;11429;50.842;4.386;2024-02-23T10:58:37;8.00;99.90
22526;DHT22;11429;50.842;4.386;2024-02-23T11:01:07;8.20;99.90
22526;DHT22;11429;50.842;4.386;2024-02-23T11:03:36;8.50;99.90
22526;DHT22;11429;50.842;4.386;2024-02-23T11:06:06;8.70;99.90
22526;DHT22;11429;50.842;4.386;2024-02-23T11:08:35;8.70;99.90
22526;DHT22;11429;50.842;4.386;2024-02-23T11:11:08;8.70;99.90
22526;DHT22;11429;50.842;4.386;2024-02-23T11:13:38;8.80;99.90
22526;DHT22;11429;50.842;4.386;2024-02-23T11:16:05;9.00;99.90
22526;DHT22;11429;50.842;4.386;2024-02-23T11:18:33;9.00;99.90
22526;DHT22;11429;50.842;4.386;2024-02-23T11:21:01;8.70;99.90
22526;DHT22;11429;50.842;4.386;2024-02-23T11:23:43;8.60;99.90
22526;DHT22;11429;50.842;4.386;2024-02-23T11:26:13;8.60;99.90
22526;DHT22;11429;50.842;4.386;2024-02-23T11:31:16;8.50;99.90
22526;DHT22;11429;50.842;4.386;2024-02-23T11:33:54;8.50;99.90
22526;DHT22;11429;50.842;4.386;2024-02-23T11:38:52;8.70;99.90
22526;DHT22;11429;50.842;4.386;2024-02-23T11:41:20;8.70;99.90
22526;DHT22;11429;50.842;4.386;2024-02-23T11:43:45;8.70;99.90
22526;DHT22;11429;50.842;4.386;2024-02-23T11:46:13;8.70;99.90
22526;DHT22;11429;50.842;4.386;2024-02-23T11:48:40;8.70;99.90
22526;DHT22;11429;50.842;4.386;2024-02-23T11:51:05;8.70;99.90
22526;DHT22;11429;50.842;4.386;2024-02-23T11:53:33;8.70;99.90
22526;DHT22;11429;50.842;4.386;2024-02-23T11:55:58;8.50;99.90
22526;DHT22;11429;50.842;4.386;2024-02-23T11:58:24;8.50;99.90
22526;DHT22;11429;50.842;4.386;2024-02-23T12:00:51;8.30;99.90
22526;DHT22;11429;50.842;4.386;2024-02-23T12:03:16;8.50;99.90
22526;DHT22;11429;50.842;4.386;2024-02-23T12:05:43;8.80;99.90
22526;DHT22;11429;50.842;4.386;2024-02-23T12:08:09;9.20;99.90
22526;DHT22;11429;50.842;4.386;2024-02-23T12:10:35;9.40;99.90
22526;DHT22;11429;50.842;4.386;2024-02-23T12:13:02;9.70;99.90
22526;DHT22;11429;50.842;4.386;2024-02-23T12:15:28;10.00;99.90
22526;DHT22;11429;50.842;4.386;2024-02-23T12:17:58;9.90;99.90
22526;DHT22;11429;50.842;4.386;2024-02-23T12:20:25;10.10;99.90
22526;DHT22;11429;50.842;4.386;2024-02-23T12:22:54;10.20;99.90
22526;DHT22;11429;50.842;4.386;2024-02-23T12:25:21;10.20;99.90
22526;DHT22;11429;50.842;4.386;2024-02-23T12:27:54;9.80;99.90
22526;DHT22;11429;50.842;4.386;2024-02-23T12:30:20;9.60;99.90
22526;DHT22;11429;50.842;4.386;2024-02-23T12:32:46;9.70;99.90
22526;DHT22;11429;50.842;4.386;2024-02-23T12:35:12;9.40;99.90
22526;DHT22;11429;50.842;4.386;2024-02-23T12:37:38;9.60;99.90
22526;DHT22;11429;50.842;4.386;2024-02-23T12:40:05;9.70;99.90
22526;DHT22;11429;50.842;4.386;2024-02-23T12:42:31;10.10;99.90
22526;DHT22;11429;50.842;4.386;2024-02-23T12:44:57;10.10;99.90
22526;DHT22;11429;50.842;4.386;2024-02-23T12:47:22;9.70;99.90
22526;DHT22;11429;50.842;4.386;2024-02-23T12:49:48;9.70;99.90
22526;DHT22;11429;50.842;4.386;2024-02-23T12:52:14;9.50;99.90
22526;DHT22;11429;50.842;4.386;2024-02-23T12:54:40;9.30;99.90
22526;DHT22;11429;50.842;4.386;2024-02-23T12:57:07;9.40;99.90
22526;DHT22;11429;50.842;4.386;2024-02-23T12:59:33;9.60;99.90
22526;DHT22;11429;50.842;4.386;2024-02-23T13:01:59;9.60;99.90
22526;DHT22;11429;50.842;4.386;2024-02-23T13:04:25;9.30;99.90
22526;DHT22;11429;50.842;4.386;2024-02-23T13:06:51;9.40;99.90
22526;DHT22;11429;50.842;4.386;2024-02-23T13:09:16;9.40;99.90
22526;DHT22;11429;50.842;4.386;2024-02-23T13:11:42;9.60;99.90
22526;DHT22;11429;50.842;4.386;2024-02-23T13:14:08;9.50;99.90
22526;DHT22;11429;50.842;4.386;2024-02-23T13:16:35;9.70;99.90
22526;DHT22;11429;50.842;4.386;2024-02-23T13:19:00;9.80;99.90
22526;DHT22;11429;50.842;4.386;2024-02-23T13:21:26;9.80;99.90
22526;DHT22;11429;50.842;4.386;2024-02-23T13:23:58;9.50;99.90
22526;DHT22;11429;50.842;4.386;2024-02-23T13:26:23;9.40;99.90
22526;DHT22;11429;50.842;4.386;2024-02-23T13:28:49;9.60;99.90
22526;DHT22;11429;50.842;4.386;2024-02-23T13:31:15;9.80;99.90
22526;DHT22;11429;50.842;4.386;2024-02-23T13:33:42;10.10;99.90
22526;DHT22;11429;50.842;4.386;2024-02-23T13:36:10;9.90;99.90
22526;DHT22;11429;50.842;4.386;2024-02-23T13:38:37;9.70;99.90
22526;DHT22;11429;50.842;4.386;2024-02-23T13:41:05;9.60;99.90
22526;DHT22;11429;50.842;4.386;2024-02-23T13:43:31;9.60;99.90
22526;DHT22;11429;50.842;4.386;2024-02-23T13:45:58;9.60;99.90
22526;DHT22;11429;50.842;4.386;2024-02-23T13:48:24;9.70;99.90
22526;DHT22;11429;50.842;4.386;2024-02-23T13:50:50;9.80;99.90
22526;DHT22;11429;50.842;4.386;2024-02-23T13:53:16;9.80;99.90
22526;DHT22;11429;50.842;4.386;2024-02-23T13:55:41;9.90;99.90
22526;DHT22;11429;50.842;4.386;2024-02-23T13:58:09;9.90;99.90
22526;DHT22;11429;50.842;4.386;2024-02-23T14:00:36;9.90;99.90
22526;DHT22;11429;50.842;4.386;2024-02-23T14:03:02;9.90;99.90
22526;DHT22;11429;50.842;4.386;2024-02-23T14:05:28;9.90;99.90
22526;DHT22;11429;50.842;4.386;2024-02-23T14:07:54;9.60;99.90
22526;DHT22;11429;50.842;4.386;2024-02-23T14:10:20;9.60;99.90
22526;DHT22;11429;50.842;4.386;2024-02-23T14:12:46;9.50;99.90
22526;DHT22;11429;50.842;4.386;2024-02-23T14:15:12;9.40;99.90
22526;DHT22;11429;50.842;4.386;2024-02-23T14:17:38;9.60;99.90
22526;DHT22;11429;50.842;4.386;2024-02-23T14:20:05;9.60;99.90
22526;DHT22;11429;50.842;4.386;2024-02-23T14:22:32;9.50;99.90
22526;DHT22;11429;50.842;4.386;2024-02-23T14:24:58;9.60;99.90
22526;DHT22;11429;50.842;4.386;2024-02-23T14:27:24;9.90;99.90
22526;DHT22;11429;50.842;4.386;2024-02-23T14:29:50;10.10;99.90
22526;DHT22;11429;50.842;4.386;2024-02-23T14:32:19;9.90;99.90
22526;DHT22;11429;50.842;4.386;2024-02-23T14:34:44;10.00;99.90
22526;DHT22;11429;50.842;4.386;2024-02-23T14:37:11;10.20;99.90
22526;DHT22;11429;50.842;4.386;2024-02-23T14:39:37;10.10;99.90
22526;DHT22;11429;50.842;4.386;2024-02-23T14:42:03;10.10;99.90
22526;DHT22;11429;50.842;4.386;2024-02-23T14:44:34;10.00;99.90
22526;DHT22;11429;50.842;4.386;2024-02-23T14:47:00;9.80;99.90
22526;DHT22;11429;50.842;4.386;2024-02-23T14:49:26;9.60;99.90
22526;DHT22;11429;50.842;4.386;2024-02-23T14:51:52;9.60;99.90
22526;DHT22;11429;50.842;4.386;2024-02-23T14:54:17;9.70;99.90
22526;DHT22;11429;50.842;4.386;2024-02-23T14:56:43;9.90;99.90
22526;DHT22;11429;50.842;4.386;2024-02-23T14:59:09;10.10;99.90
22526;DHT22;11429;50.842;4.386;2024-02-23T15:01:39;10.20;99.90
22526;DHT22;11429;50.842;4.386;2024-02-23T15:04:08;10.40;99.90
22526;DHT22;11429;50.842;4.386;2024-02-23T15:06:36;10.10;99.90
22526;DHT22;11429;50.842;4.386;2024-02-23T15:09:03;10.10;99.90
22526;DHT22;11429;50.842;4.386;2024-02-23T15:11:29;10.10;99.90
22526;DHT22;11429;50.842;4.386;2024-02-23T15:13:55;10.00;99.90
22526;DHT22;11429;50.842;4.386;2024-02-23T15:16:27;9.80;99.90
22526;DHT22;11429;50.842;4.386;2024-02-23T15:18:53;9.70;99.90
22526;DHT22;11429;50.842;4.386;2024-02-23T15:21:19;9.70;99.90
22526;DHT22;11429;50.842;4.386;2024-02-23T15:23:46;9.60;99.90
22526;DHT22;11429;50.842;4.386;2024-02-23T15:26:12;9.70;99.90
22526;DHT22;11429;50.842;4.386;2024-02-23T15:28:38;9.70;99.90
22526;DHT22;11429;50.842;4.386;2024-02-23T15:31:04;9.70;99.90
22526;DHT22;11429;50.842;4.386;2024-02-23T15:33:30;9.60;99.90
22526;DHT22;11429;50.842;4.386;2024-02-23T15:35:56;9.60;99.90
22526;DHT22;11429;50.842;4.386;2024-02-23T15:38:22;9.50;99.90
22526;DHT22;11429;50.842;4.386;2024-02-23T15:40:47;9.50;99.90
22526;DHT22;11429;50.842;4.386;2024-02-23T15:43:14;9.40;99.90
22526;DHT22;11429;50.842;4.386;2024-02-23T15:45:40;9.40;99.90